createdAt,value
2022-10-10T00:01:13.404Z,9.06
2022-10-10T00:04:00.188Z,9.02
2022-10-10T00:06:45.882Z,8.82
2022-10-10T00:09:31.397Z,8.99
2022-10-10T00:12:17.142Z,8.87
2022-10-10T00:15:02.705Z,8.88
2022-10-10T00:17:50.192Z,8.84
2022-10-10T00:20:35.995Z,8.92
2022-10-10T00:23:21.716Z,8.89
2022-10-10T00:39:46.814Z,8.68
2022-10-10T00:42:29.727Z,8.46
2022-10-10T00:45:41.619Z,8.65
2022-10-10T00:48:32.416Z,8.58
2022-10-10T00:51:19.232Z,8.54
2022-10-10T00:54:08.782Z,8.57
2022-10-10T00:57:00.828Z,8.39
2022-10-10T00:59:46.758Z,8.33
2022-10-10T01:02:32.409Z,8.42
2022-10-10T01:05:18.414Z,8.38
2022-10-10T01:08:05.858Z,8.41
2022-10-10T01:11:08.508Z,8.21
2022-10-10T01:14:11.390Z,8.32
2022-10-10T01:17:20.684Z,8.21
2022-10-10T01:20:43.500Z,8.19
2022-10-10T01:23:53.488Z,8.25
2022-10-10T01:27:09.126Z,8.15
2022-10-10T01:35:30.855Z,8.06
2022-10-10T01:38:43.433Z,7.91
2022-10-10T01:41:36.144Z,7.89
2022-10-10T01:44:22.444Z,7.95
2022-10-10T01:47:10.717Z,7.80
2022-10-10T01:50:01.220Z,7.83
2022-10-10T01:52:56.191Z,7.69
2022-10-10T01:55:49.564Z,7.65
2022-10-10T01:59:00.453Z,7.59
2022-10-10T02:01:57.073Z,7.61
2022-10-10T02:05:14.895Z,7.61
2022-10-10T02:08:03.555Z,7.71
2022-10-10T02:10:53.724Z,7.71
2022-10-10T02:13:56.740Z,7.78
2022-10-10T02:16:46.672Z,7.70
2022-10-10T02:19:32.806Z,7.58
2022-10-10T02:22:20.808Z,7.55
2022-10-10T02:25:07.128Z,7.57
2022-10-10T02:28:27.940Z,7.58
2022-10-10T02:31:21.452Z,7.53
2022-10-10T02:34:13.464Z,7.57
2022-10-10T02:37:03.058Z,7.57
2022-10-10T02:39:53.868Z,7.52
2022-10-10T02:42:40.468Z,7.47
2022-10-10T02:45:26.428Z,7.42
2022-10-10T02:48:12.040Z,7.51
2022-10-10T02:50:57.465Z,7.59
2022-10-10T02:53:43.196Z,7.67
2022-10-10T02:56:28.933Z,7.67
2022-10-10T02:59:14.574Z,7.80
2022-10-10T03:02:00.405Z,7.79
2022-10-10T03:04:45.921Z,7.76
2022-10-10T03:07:31.311Z,7.88
2022-10-10T03:10:16.925Z,7.73
2022-10-10T03:13:02.289Z,7.75
2022-10-10T03:15:47.730Z,7.86
2022-10-10T03:18:33.376Z,7.89
2022-10-10T03:21:19.013Z,7.77
2022-10-10T03:24:05.333Z,7.74
2022-10-10T03:26:50.850Z,7.90
2022-10-10T03:29:36.205Z,7.88
2022-10-10T03:32:21.456Z,7.78
2022-10-10T03:35:07.341Z,7.77
2022-10-10T03:37:52.799Z,7.68
2022-10-10T03:40:40.979Z,7.56
2022-10-10T03:43:26.770Z,7.79
2022-10-10T03:46:15.955Z,7.62
2022-10-10T03:49:01.999Z,7.56
2022-10-10T03:51:47.897Z,7.66
2022-10-10T03:54:33.378Z,7.64
2022-10-10T03:57:18.823Z,7.56
2022-10-10T04:00:04.746Z,7.67
2022-10-10T04:02:50.466Z,7.70
2022-10-10T04:05:37.770Z,7.65
2022-10-10T04:08:24.726Z,7.62
2022-10-10T04:11:10.305Z,7.59
2022-10-10T04:13:55.981Z,7.61
2022-10-10T04:16:41.874Z,7.48
2022-10-10T04:19:27.141Z,7.54
2022-10-10T04:22:12.791Z,7.53
2022-10-10T04:24:58.130Z,7.52
2022-10-10T04:27:44.013Z,7.47
2022-10-10T04:30:33.307Z,7.49
2022-10-10T04:33:18.941Z,7.41
2022-10-10T04:36:04.618Z,7.47
2022-10-10T04:38:50.452Z,7.44
2022-10-10T04:41:35.964Z,7.44
2022-10-10T04:44:21.673Z,7.47
2022-10-10T04:47:07.223Z,7.48
2022-10-10T04:49:52.764Z,7.38
2022-10-10T04:52:38.667Z,7.38
2022-10-10T04:55:24.066Z,7.24
2022-10-10T04:58:09.462Z,7.28
2022-10-10T05:00:55.273Z,7.26
2022-10-10T05:03:40.983Z,7.16
2022-10-10T05:06:26.312Z,7.02
2022-10-10T05:09:11.700Z,7.11
2022-10-10T05:11:57.080Z,7.05
2022-10-10T05:14:47.302Z,7.09
2022-10-10T05:17:33.711Z,7.16
2022-10-10T05:20:19.561Z,7.09
2022-10-10T05:23:05.085Z,7.09
2022-10-10T05:25:51.015Z,7.12
2022-10-10T05:28:37.054Z,7.10
2022-10-10T05:31:22.691Z,7.18
2022-10-10T05:34:13.482Z,7.16
2022-10-10T05:36:59.136Z,7.19
2022-10-10T05:39:44.836Z,7.15
2022-10-10T05:42:30.319Z,7.24
2022-10-10T05:45:15.874Z,7.07
2022-10-10T05:48:01.219Z,7.14
2022-10-10T05:50:50.904Z,7.24
2022-10-10T05:53:36.523Z,7.29
2022-10-10T05:56:23.299Z,7.31
2022-10-10T05:59:08.712Z,7.20
2022-10-10T06:01:54.247Z,7.25
2022-10-10T06:04:39.864Z,7.28
2022-10-10T06:07:40.386Z,7.27
2022-10-10T06:10:34.726Z,7.35
2022-10-10T06:13:24.350Z,7.47
2022-10-10T06:16:10.192Z,7.51
2022-10-10T06:18:58.529Z,7.58
2022-10-10T06:21:43.858Z,7.64
2022-10-10T06:24:29.748Z,7.73
2022-10-10T06:27:15.316Z,8.08
2022-10-10T06:30:00.957Z,8.39
2022-10-10T06:32:46.245Z,8.55
2022-10-10T06:35:31.977Z,9.00
2022-10-10T06:38:17.369Z,9.29
2022-10-10T06:41:04.934Z,9.73
2022-10-10T06:43:51.650Z,9.90
2022-10-10T06:46:38.113Z,10.06
2022-10-10T06:49:23.753Z,10.38
2022-10-10T06:52:09.249Z,10.74
2022-10-10T06:54:54.763Z,11.23
2022-10-10T06:57:40.174Z,11.44
2022-10-10T07:00:25.919Z,11.73
2022-10-10T07:03:12.629Z,11.92
2022-10-10T07:06:02.902Z,12.27
2022-10-10T07:08:48.361Z,12.47
2022-10-10T07:11:33.578Z,12.88
2022-10-10T07:14:19.288Z,13.62
2022-10-10T07:17:04.887Z,14.16
2022-10-10T07:19:50.322Z,14.43
2022-10-10T07:22:35.671Z,14.92
2022-10-10T07:25:21.311Z,14.85
2022-10-10T07:28:07.917Z,14.98
2022-10-10T07:30:59.902Z,15.34
2022-10-10T07:33:50.377Z,15.49
2022-10-10T07:36:37.574Z,16.19
2022-10-10T07:39:24.046Z,16.58
2022-10-10T07:42:09.287Z,16.85
2022-10-10T07:44:54.977Z,17.41
2022-10-10T07:47:41.020Z,17.79
2022-10-10T07:50:26.863Z,17.85
2022-10-10T07:53:12.428Z,18.45
2022-10-10T07:55:57.804Z,16.97
2022-10-10T07:58:43.500Z,17.76
2022-10-10T08:01:28.903Z,17.91
2022-10-10T08:04:14.568Z,18.41
2022-10-10T08:07:00.061Z,19.18
2022-10-10T08:09:45.407Z,19.04
2022-10-10T08:12:31.000Z,19.46
2022-10-10T08:15:16.752Z,19.19
2022-10-10T08:18:01.992Z,18.69
2022-10-10T08:20:47.491Z,19.45
2022-10-10T08:23:33.417Z,19.99
2022-10-10T08:26:20.048Z,21.07
2022-10-10T08:29:05.845Z,21.70
2022-10-10T08:31:51.134Z,21.77
2022-10-10T08:34:36.442Z,22.09
2022-10-10T08:40:20.187Z,23.01
2022-10-10T08:43:09.188Z,22.92
2022-10-10T08:45:57.300Z,24.06
2022-10-10T08:48:46.050Z,23.87
2022-10-10T08:51:33.335Z,24.41
2022-10-10T08:54:22.076Z,24.76
2022-10-10T08:57:22.767Z,23.81
2022-10-10T09:00:16.718Z,24.30
2022-10-10T09:03:05.624Z,24.03
2022-10-10T09:06:13.176Z,24.90
2022-10-10T09:09:15.248Z,24.62
2022-10-10T09:12:15.350Z,25.56
2022-10-10T09:15:28.243Z,26.66
2022-10-10T09:18:32.292Z,27.24
2022-10-10T09:21:29.535Z,25.59
2022-10-10T09:24:22.839Z,25.64
2022-10-10T09:27:14.354Z,26.88
2022-10-10T09:30:16.247Z,27.05
2022-10-10T09:33:17.863Z,25.52
2022-10-10T09:36:06.876Z,26.41
2022-10-10T09:39:00.265Z,27.30
2022-10-10T09:41:55.313Z,28.42
2022-10-10T09:44:42.449Z,28.40
2022-10-10T09:47:28.411Z,27.37
2022-10-10T09:50:15.447Z,27.20
2022-10-10T09:53:01.114Z,28.06
2022-10-10T09:55:47.227Z,28.71
2022-10-10T09:58:41.317Z,29.54
2022-10-10T10:01:30.935Z,30.77
2022-10-10T10:04:34.520Z,30.52
2022-10-10T10:07:31.854Z,29.55
2022-10-10T10:10:24.058Z,29.87
2022-10-10T10:13:23.571Z,30.26
2022-10-10T10:16:12.714Z,31.09
2022-10-10T10:18:58.414Z,29.86
2022-10-10T10:21:51.595Z,30.82
2022-10-10T10:24:37.059Z,30.19
2022-10-10T10:27:24.669Z,31.16
2022-10-10T10:30:24.204Z,31.04
2022-10-10T10:33:16.533Z,31.46
2022-10-10T10:36:13.746Z,32.15
2022-10-10T10:39:11.281Z,31.92
2022-10-10T10:42:05.539Z,29.99
2022-10-10T10:45:06.133Z,30.88
2022-10-10T10:48:14.468Z,32.43
2022-10-10T10:51:18.137Z,31.78
2022-10-10T10:54:06.410Z,32.55
2022-10-10T10:57:06.611Z,31.00
2022-10-10T11:00:26.474Z,33.02
2022-10-10T11:05:16.215Z,34.28
2022-10-10T11:07:18.961Z,33.34
2022-10-10T11:10:35.380Z,33.96
2022-10-10T11:13:29.284Z,35.70
2022-10-10T11:19:40.177Z,33.38
2022-10-10T11:22:33.848Z,33.86
2022-10-10T11:25:23.363Z,33.17
2022-10-10T11:28:21.737Z,31.94
2022-10-10T11:31:33.067Z,33.57
2022-10-10T11:34:29.935Z,33.52
2022-10-10T11:37:24.150Z,32.99
2022-10-10T11:40:27.020Z,32.25
2022-10-10T11:43:19.476Z,34.16
2022-10-10T11:46:18.848Z,34.79
2022-10-10T11:49:11.765Z,33.09
2022-10-10T11:52:09.546Z,34.43
2022-10-10T11:55:09.088Z,34.81
2022-10-10T11:58:00.093Z,34.68
2022-10-10T12:00:51.748Z,35.66
2022-10-10T12:03:37.283Z,35.23
2022-10-10T12:06:29.055Z,33.31
2022-10-10T12:09:25.107Z,32.98
2022-10-10T12:12:21.519Z,34.23
2022-10-10T12:15:10.438Z,34.04
2022-10-10T12:17:56.839Z,33.55
2022-10-10T12:20:42.349Z,34.16
2022-10-10T12:23:32.860Z,32.89
2022-10-10T12:26:22.280Z,33.81
2022-10-10T12:29:10.781Z,33.27
2022-10-10T12:32:13.233Z,32.06
2022-10-10T12:35:00.941Z,32.51
2022-10-10T12:38:17.518Z,33.21
2022-10-10T12:41:04.838Z,33.76
2022-10-10T12:44:13.009Z,33.31
2022-10-10T12:47:16.426Z,33.28
2022-10-10T12:50:18.649Z,33.62
2022-10-10T12:53:18.164Z,32.69
2022-10-10T12:56:04.001Z,33.83
2022-10-10T12:58:50.028Z,34.62
2022-10-10T13:01:40.092Z,33.52
2022-10-10T13:04:26.595Z,31.83
2022-10-10T13:07:17.246Z,31.25
2022-10-10T13:10:18.906Z,30.94
2022-10-10T13:13:18.724Z,31.50
2022-10-10T13:16:17.218Z,30.40
2022-10-10T13:19:02.836Z,31.08
2022-10-10T13:21:50.878Z,29.61
2022-10-10T13:24:36.547Z,28.99
2022-10-10T13:27:35.286Z,29.13
2022-10-10T13:30:24.190Z,30.78
2022-10-10T13:33:21.436Z,30.88
2022-10-10T13:36:18.111Z,32.08
2022-10-10T13:39:03.822Z,29.81
2022-10-10T13:41:50.148Z,29.20
2022-10-10T13:44:51.222Z,27.52
2022-10-10T13:47:52.838Z,26.34
2022-10-10T13:50:44.299Z,26.38
2022-10-10T13:53:30.391Z,27.42
2022-10-10T13:56:26.581Z,26.69
2022-10-10T13:59:14.270Z,26.84
2022-10-10T14:02:04.174Z,26.72
2022-10-10T14:04:53.478Z,26.63
2022-10-10T14:07:38.859Z,26.46
2022-10-10T14:10:33.554Z,25.31
2022-10-10T14:13:19.061Z,24.15
2022-10-10T14:16:23.809Z,24.64
2022-10-10T14:19:21.935Z,25.01
2022-10-10T14:22:07.574Z,24.13
2022-10-10T14:24:52.894Z,23.18
2022-10-10T14:27:39.271Z,23.34
2022-10-10T14:30:24.864Z,25.10
2022-10-10T14:33:15.638Z,26.21
2022-10-10T14:36:01.266Z,25.70
2022-10-10T14:38:46.903Z,24.54
2022-10-10T14:41:32.555Z,23.38
2022-10-10T14:44:18.271Z,21.86
2022-10-10T14:47:03.852Z,21.18
2022-10-10T14:49:50.079Z,20.93
2022-10-10T14:52:35.580Z,20.29
2022-10-10T14:55:21.215Z,20.56
2022-10-10T14:58:06.553Z,20.56
2022-10-10T15:00:52.957Z,21.01
2022-10-10T15:03:38.579Z,21.35
2022-10-10T15:06:24.240Z,21.21
2022-10-10T15:09:34.639Z,20.36
2022-10-10T15:12:17.106Z,20.10
2022-10-10T15:15:03.237Z,20.37
2022-10-10T15:17:49.762Z,20.32
2022-10-10T15:20:36.633Z,19.87
2022-10-10T15:23:22.350Z,19.63
2022-10-10T15:26:07.665Z,19.35
2022-10-10T15:28:54.268Z,18.95
2022-10-10T15:31:40.201Z,18.43
2022-10-10T15:34:25.540Z,18.69
2022-10-10T15:37:11.237Z,18.19
2022-10-10T15:39:56.576Z,18.18
2022-10-10T15:42:42.218Z,18.01
2022-10-10T15:48:33.173Z,17.92
2022-10-10T15:51:19.147Z,17.88
2022-10-10T15:54:04.733Z,17.58
2022-10-10T15:56:50.349Z,17.60
2022-10-10T15:59:38.077Z,17.60
2022-10-10T16:02:26.044Z,17.70
2022-10-10T16:05:11.661Z,17.68
2022-10-10T16:07:57.046Z,17.36
2022-10-10T16:10:43.410Z,17.40
2022-10-10T16:13:29.041Z,17.47
2022-10-10T16:16:14.966Z,17.34
2022-10-10T16:19:00.587Z,17.03
2022-10-10T16:21:46.210Z,17.02
2022-10-10T16:24:31.616Z,16.86
2022-10-10T16:27:16.990Z,16.74
2022-10-10T16:30:02.986Z,16.67
2022-10-10T16:32:48.836Z,16.89
2022-10-10T16:35:37.773Z,16.69
2022-10-10T16:38:23.260Z,16.46
2022-10-10T16:41:23.833Z,16.30
2022-10-10T16:44:17.669Z,16.27
2022-10-10T16:47:03.030Z,16.37
2022-10-10T16:49:48.661Z,16.22
2022-10-10T16:52:37.807Z,16.16
2022-10-10T16:55:23.513Z,16.35
2022-10-10T16:58:09.715Z,16.31
2022-10-10T17:00:55.943Z,16.14
2022-10-10T17:03:41.980Z,16.12
2022-10-10T17:06:34.849Z,16.14
2022-10-10T17:09:22.550Z,16.15
2022-10-10T17:12:07.998Z,16.18
2022-10-10T17:14:53.769Z,16.07
2022-10-10T17:17:39.161Z,16.17
2022-10-10T17:20:24.702Z,16.15
2022-10-10T17:23:11.460Z,16.10
2022-10-10T17:25:56.893Z,16.02
2022-10-10T17:28:43.044Z,15.97
2022-10-10T17:31:28.832Z,15.89
2022-10-10T17:34:14.180Z,15.70
2022-10-10T17:36:59.770Z,15.61
2022-10-10T17:39:45.252Z,15.12
2022-10-10T17:42:30.672Z,15.01
2022-10-10T17:45:16.223Z,14.81
2022-10-10T17:48:03.234Z,14.68
2022-10-10T17:50:48.890Z,14.74
2022-10-10T17:53:34.299Z,14.55
2022-10-10T17:56:21.744Z,14.47
2022-10-10T17:59:08.075Z,14.48
2022-10-10T18:01:53.413Z,14.43
2022-10-10T18:04:41.197Z,14.38
2022-10-10T18:07:26.840Z,14.45
2022-10-10T18:10:12.209Z,14.23
2022-10-10T18:12:59.743Z,14.45
2022-10-10T18:15:58.590Z,14.31
2022-10-10T18:18:51.877Z,14.29
2022-10-10T18:21:37.912Z,14.24
2022-10-10T18:24:23.514Z,14.30
2022-10-10T18:27:08.679Z,14.12
2022-10-10T18:29:54.265Z,14.12
2022-10-10T18:32:39.744Z,14.20
2022-10-10T18:35:25.347Z,14.24
2022-10-10T18:38:10.811Z,14.25
2022-10-10T18:41:07.578Z,14.08
2022-10-10T18:43:55.951Z,14.08
2022-10-10T18:46:41.383Z,14.14
2022-10-10T18:49:27.197Z,13.96
2022-10-10T18:52:12.956Z,14.06
2022-10-10T18:54:58.280Z,13.96
2022-10-10T18:57:43.685Z,13.86
2022-10-10T19:00:29.323Z,13.80
2022-10-10T19:03:15.997Z,13.74
2022-10-10T19:06:02.752Z,13.62
2022-10-10T19:08:48.368Z,13.72
2022-10-10T19:11:36.414Z,13.61
2022-10-10T19:14:22.242Z,13.54
2022-10-10T19:17:07.883Z,13.33
2022-10-10T19:19:53.414Z,13.23
2022-10-10T19:22:38.989Z,13.28
2022-10-10T19:25:24.620Z,13.28
2022-10-10T19:28:10.163Z,13.06
2022-10-10T19:30:55.405Z,12.94
2022-10-10T19:33:42.336Z,12.83
2022-10-10T19:36:28.191Z,12.74
2022-10-10T19:39:13.793Z,12.52
2022-10-10T19:41:59.097Z,12.24
2022-10-10T19:44:47.345Z,12.18
2022-10-10T19:47:33.055Z,12.23
2022-10-10T19:50:18.640Z,12.22
2022-10-10T19:53:05.157Z,12.10
2022-10-10T19:55:59.317Z,12.01
2022-10-10T19:58:44.750Z,11.84
2022-10-10T20:01:30.776Z,11.68
2022-10-10T20:04:16.471Z,11.57
2022-10-10T20:07:01.815Z,11.50
2022-10-10T20:09:48.605Z,11.39
2022-10-10T20:12:34.626Z,11.30
2022-10-10T20:15:20.354Z,11.26
2022-10-10T20:18:05.776Z,11.25
2022-10-10T20:20:52.334Z,11.16
2022-10-10T20:23:38.030Z,11.04
2022-10-10T20:26:23.574Z,11.10
2022-10-10T20:29:09.284Z,11.10
2022-10-10T20:31:54.643Z,11.08
2022-10-10T20:34:40.013Z,10.82
2022-10-10T20:37:25.478Z,10.85
2022-10-10T20:40:10.977Z,10.86
2022-10-10T20:42:56.202Z,10.87
2022-10-10T20:45:41.894Z,10.81
2022-10-10T20:48:27.219Z,10.82
2022-10-10T20:51:13.332Z,10.87
2022-10-10T20:54:02.087Z,10.71
2022-10-10T20:56:50.885Z,10.67
2022-10-10T20:59:36.073Z,10.59
2022-10-10T21:02:21.602Z,10.62
2022-10-10T21:05:07.598Z,10.73
2022-10-10T21:07:53.216Z,10.68
2022-10-10T21:10:39.836Z,10.59
2022-10-10T21:13:25.408Z,10.62
2022-10-10T21:16:14.273Z,10.54
2022-10-10T21:19:00.436Z,10.61
2022-10-10T21:21:46.200Z,10.62
2022-10-10T21:24:31.846Z,10.54
2022-10-10T21:27:17.285Z,10.60
2022-10-10T21:30:02.755Z,10.54
2022-10-10T21:32:48.291Z,10.63
2022-10-10T21:35:35.914Z,10.65
2022-10-10T21:38:21.328Z,10.68
2022-10-10T21:41:08.842Z,10.51
2022-10-10T21:43:58.805Z,10.44
2022-10-10T21:46:44.425Z,10.48
2022-10-10T21:49:29.840Z,10.45
2022-10-10T21:52:15.412Z,10.47
2022-10-10T21:55:01.040Z,10.28
2022-10-10T21:57:48.184Z,10.29
2022-10-10T22:00:33.929Z,10.38
2022-10-10T22:03:19.351Z,10.20
2022-10-10T22:06:06.771Z,10.29
2022-10-10T22:08:56.233Z,10.30
2022-10-10T22:11:41.730Z,10.37
2022-10-10T22:14:26.948Z,10.32
2022-10-10T22:17:12.397Z,10.30
2022-10-10T22:19:58.011Z,10.20
2022-10-10T22:22:43.657Z,10.09
2022-10-10T22:25:29.198Z,10.22
2022-10-10T22:28:15.025Z,10.19
2022-10-10T22:31:12.489Z,10.09
2022-10-10T22:33:57.821Z,10.10
2022-10-10T22:36:43.279Z,10.15
2022-10-10T22:39:28.921Z,10.12
2022-10-10T22:42:14.220Z,10.04
2022-10-10T22:44:59.883Z,10.02
2022-10-10T22:47:45.637Z,9.93
2022-10-10T22:50:31.215Z,9.90
2022-10-10T22:53:16.492Z,9.91
2022-10-10T22:56:03.367Z,9.81
2022-10-10T22:58:50.902Z,9.92
2022-10-10T23:01:37.175Z,9.92
2022-10-10T23:04:22.836Z,9.90
2022-10-10T23:07:08.012Z,9.74
2022-10-10T23:09:53.469Z,9.84
2022-10-10T23:12:38.778Z,9.72
2022-10-10T23:15:24.383Z,9.72
2022-10-10T23:18:09.672Z,9.76
2022-10-10T23:20:56.083Z,9.75
2022-10-10T23:23:41.641Z,9.74
2022-10-10T23:26:27.323Z,9.63
2022-10-10T23:29:12.533Z,9.60
2022-10-10T23:31:58.277Z,9.52
2022-10-10T23:34:43.777Z,9.61
2022-10-10T23:37:29.209Z,9.48
2022-10-10T23:40:14.802Z,9.54
2022-10-10T23:43:00.125Z,9.44
2022-10-10T23:45:45.654Z,9.50
2022-10-10T23:48:31.195Z,9.57
2022-10-10T23:51:16.882Z,9.47
2022-10-10T23:54:02.531Z,9.45
2022-10-10T23:56:48.028Z,9.40
2022-10-10T23:59:33.591Z,9.49
